ADDS METAR Data INFO
IDs: Format: Raw Decoded Include TAF

Data at: 0036 UTC 23 Feb 2018

KOCH 222356Z AUTO 00000KT 1/4SM FG OVC003 17/17 A3016 RMK AO2 SLP218 60004 T01670167 10178 20139 53003 RVRNO
KOCH 222344Z AUTO 00000KT 1/4SM FG OVC003 17/17 A3017 RMK AO2 LTG DSNT SE AND S RVRNO
KOCH 222322Z AUTO 00000KT 1/2SM FG OVC003 17/17 A3016 RMK AO2 RVRNO
KOCH 222311Z AUTO 33003KT 3/4SM BR OVC003 17/17 A3016 RMK AO2 RVRNO
KOCH 222256Z AUTO 00000KT 1 3/4SM BR OVC003 18/17 A3016 RMK AO2 LTG DSNT NW SLP215 T01780172
KOCH 222252Z AUTO 00000KT 2 1/2SM BR OVC003 18/17 A3016 RMK AO2 LTG DSNT NW
KOCH 222156Z AUTO 00000KT 3SM BR OVC003 17/17 A3015 RMK AO2 LTG DSNT W AND NW RAE11 SLP215 P0001 T01670167
KOCH 222148Z AUTO 2 1/2SM BR OVC003 17/16 A3015 RMK AO2 LTG DSNT W RAE11 P0001 $
KOCH 222056Z AUTO 00000KT 5SM -RA BR OVC003 16/16 A3017 RMK AO2 RAB08 SLP220 P0003 60003 T01560156 56016
KOCH 222049Z AUTO 00000KT 3SM -RA BR OVC003 16/15 A3017 RMK AO2 RAB08 P0003
KOCH 222038Z AUTO 00000KT 1 3/4SM RA BR OVC003 16/16 A3017 RMK AO2 RAB08 P0003
KOCH 222033Z AUTO 3SM BR OVC003 16/15 A3017 RMK AO2 RAB08E31 P0001 $
KOCH 222026Z AUTO 09004KT 2 1/2SM -RA BR OVC003 16/16 A3017 RMK AO2 RAB08 P0001
KOCH 221956Z AUTO 09004KT 1 1/4SM BR OVC003 16/15 A3018 RMK AO2 RAE36 SLP224 P0000 T01560150
KOCH 221953Z AUTO 1SM BR OVC003 16/15 A3018 RMK AO2 RAE36 P0000 RVRNO
KOCH 221943Z AUTO 00000KT 1 1/4SM BR OVC003 15/15 A3019 RMK AO2 RAE36 P0000
KOCH 221928Z AUTO 00000KT 1SM -RA BR OVC003 15/14 A3020 RMK AO2 P0000 RVRNO
KOCH 221917Z AUTO 00000KT 1 1/4SM BR OVC003 14/14 A3021 RMK AO2 RAE12 P0000
KOCH 221856Z AUTO 00000KT 2 1/2SM -RA BR OVC003 14/14 A3022 RMK AO2 VIS 2V4 RAB55 SLP236 P0000 T01440139
KOCH 221756Z AUTO 08006KT 3SM BR OVC003 14/14 A3023 RMK AO2 SLP240 60005 T01390139 10139 20111 58007
KOCH 221729Z AUTO 10005KT 2 1/2SM BR OVC003 13/13 A3024 RMK AO2
KOCH 221656Z AUTO VRB03KT 1 3/4SM BR OVC003 13/12 A3025 RMK AO2 SLP248 T01280122
KOCH 221643Z AUTO 10004KT 2 1/2SM BR OVC003 13/12 A3025 RMK AO2
KOCH 221556Z AUTO 08005KT 1 1/4SM BR OVC003 12/12 A3025 RMK AO2 SLP247 T01220117
KOCH 221456Z AUTO 00000KT 1 1/4SM BR OVC003 12/11 A3025 RMK AO2 RAE18 SLP248 P0000 60005 T01170111 51004
KOCH 221445Z AUTO VRB04KT 1 3/4SM BR OVC005 12/11 A3024 RMK AO2 RAE18 P0000
KOCH 221356Z AUTO 00000KT 5SM -RA BR OVC005 11/11 A3025 RMK AO2 LTG DSNT N TSB14E42RAB10 SLP247 P0005 T01110106
KOCH 221348Z AUTO 00000KT 8SM BKN005 OVC009 11/11 A3024 RMK AO2 LTG DSNT W TSB14E42RAB10E43 CIG 004V007 P0004
KOCH 221320Z AUTO 00000KT 5SM -TSRA BR OVC005 11/11 A3024 RMK AO2 LTG DSNT NE AND SW TSB14RAB10 P0001
KOCH 221256Z AUTO 02004KT 9SM OVC005 11/11 A3024 RMK AO2 TSB08E11B12E22RAE25 SLP243 P0000 T01110106
KOCH 221228Z AUTO 00000KT 10SM OVC005 11/11 A3024 RMK AO2 LTG DSNT E TSB08E11B12E22RAE25 P0000
KOCH 221218Z AUTO 00000KT 10SM VCTS -RA OVC005 11/11 A3024 RMK AO2 LTG DSNT E AND SE TSB08E11B12 P0000
KOCH 221211Z AUTO VRB04KT 10SM -RA OVC005 11/11 A3023 RMK AO2 TSB08E11 P0000
KOCH 221156Z AUTO 34005KT 10SM -RA OVC005 11/11 A3023 RMK AO2 LTG DSNT NE AND SE TSE1058B01E10B12E29RAB09 SLP242 P0004 60004 70250 T01110106 10117 20111 53004
KOCH 221135Z AUTO VRB03KT 5SM -RA BR OVC005 11/11 A3023 RMK AO2 LTG DSNT NE AND E TSE1058B01E10B12E29RAB09 P0004
KOCH 221112Z AUTO 00000KT 5SM VCTS RA BR OVC005 11/11 A3023 RMK AO2 LTG DSNT E-SW TSE1058B01E10B12RAB09 P0001
KOCH 221101Z AUTO 04003KT 10SM VCTS OVC005 11/11 A3023 RMK AO2 LTG DSNT E-SW TSE1058B01
KOCH 221056Z AUTO 35003KT 10SM VCTS OVC005 11/11 A3023 RMK AO2 LTG DSNT E-SW TSB38 SLP239 T01110106
KOCH 221044Z AUTO 36004KT 10SM VCTS OVC005 11/11 A3021 RMK AO2 LTG DSNT E-SW TSB38
KOCH 220956Z AUTO 00000KT 10SM OVC005 11/11 A3021 RMK AO2 SLP234 T01110106
KOCH 220856Z AUTO 00000KT 10SM OVC005 12/11 A3022 RMK AO2 LTG DSNT E AND SE SLP238 60000 T01170111 58006
KOCH 220756Z AUTO 00000KT 10SM BKN005 OVC037 12/11 A3024 RMK AO2 LTG DSNT S SLP242 T01170106
KOCH 220752Z AUTO 00000KT 10SM BKN005 OVC037 12/11 A3023 RMK AO2
KOCH 220740Z AUTO 00000KT 10SM SCT007 OVC037 12/11 A3022 RMK AO2 LTG DSNT NE-S
KOCH 220656Z AUTO 00000KT 10SM OVC007 12/11 A3024 RMK AO2 LTG DSNT E AND SE RAB43E53 SLP244 P0000 T01170106
KOCH 220626Z AUTO 09006KT 10SM BKN007 OVC023 11/11 A3023 RMK AO2 LTG DSNT SE AND S
KOCH 220456Z AUTO 01006KT 10SM -RA OVC005 11/11 A3023 RMK AO2 RAB20 SLP241 P0000 T01110106
KOCH 220356Z AUTO 01006KT 10SM OVC005 11/10 A3023 RMK AO2 LTG DSNT SE SLP243 T01060100
KOCH 212356Z AUTO 36010KT 10SM -RA OVC006 14/14 A3014 RMK AO2 LTG DSNT NE-SE CIG 006V010 SLP210 P0007 60057 T01440139 10150 20144 51022
KOCH 212314Z AUTO 33007KT 9SM RA BKN006 OVC014 15/14 A3014 RMK AO2 LTG DSNT SE AND S CIG 003V008 P0003
KOCH 212256Z AUTO 34006KT 9SM -RA SCT007 BKN013 OVC021 15/14 A3013 RMK AO2 RAB2157 SLP205 P0027 T01500144
KOCH 212253Z AUTO 34007KT 8SM RA SCT007 BKN013 OVC021 15/14 A3012 RMK AO2 RAB2157 P0027
KOCH 212156Z AUTO 07006KT 10SM OVC009 15/14 A3008 RMK AO2 TSB00E15B31E46RAE53 SLP188 P0011 T01500139
KOCH 212152Z AUTO 07006KT 10SM -RA OVC009 15/14 A3007 RMK AO2 TSB00E15B31E46 CIG 006V012 P0011
KOCH 212137Z AUTO 07005KT 3SM VCTS +RA BR OVC009 14/14 A3007 RMK AO2 LTG DSNT NE TSB00E15B31 CIG 006V012 P0011
KOCH 212121Z AUTO 08008KT 9SM -RA OVC009 14/13 A3008 RMK AO2 LTG DSNT E AND SE TSB00E15 CIG 007V011 P0002
KOCH 212106Z AUTO 05010KT 10SM VCTS -RA OVC009 14/13 A3008 RMK AO2 LTG DSNT NE-SE TSB00 CIG 007V011 P0001
KOCH 212056Z AUTO 08008KT 040V110 10SM -RA OVC009 14/13 A3009 RMK AO2 LTG DSNT E-S TSE28 SLP193 P0003 60012 T01440133 56020
KOCH 212044Z AUTO 00000KT 10SM -RA OVC009 14/13 A3010 RMK AO2 LTG DSNT E AND S TSE28 CIG 007V012 P0003
KOCH 212034Z AUTO VRB06G17KT 10SM RA OVC011 14/13 A3009 RMK AO2 LTG DSNT NE-S TSE28 CIG 008V012 P0002
KOCH 211956Z AUTO VRB04KT 10SM VCTS RA OVC011 14/13 A3011 RMK AO2 LTG DSNT S TSB51 CIG 008V013 SLP197 P0006 T01440133
KOCH 211856Z AUTO 04009G22KT 360V070 10SM -RA OVC011 14/13 A3012 RMK AO2 CIG 009V013 SLP202 P0003 T01440133
KOCH 211842Z AUTO 04010G18KT 10SM BKN011 OVC050 14/14 A3012 RMK AO2 LTG DSNT NE AND E RAE40 P0003
KOCH 211756Z AUTO 03010G20KT 360V070 9SM -RA BKN009 OVC070 14/13 A3015 RMK AO2 LTG DSNT E AND SE CIG 005V012 SLP213 P0034 60186 T01440133 10211 20122 58002
KOCH 211700Z AUTO 36011G15KT 6SM -RA BR BKN007 BKN016 OVC032 14/13 A3016 RMK AO2 CIG 004V012 P0000
KOCH 211656Z AUTO 36010G18KT 4SM RA BR SCT007 BKN017 OVC032 14/13 A3016 RMK AO2 CIG 012V022 SLP217 P0042 T01390133
KOCH 211653Z AUTO 01007G18KT 340V050 3SM +RA BR FEW007 BKN027 OVC032 14/13 A3017 RMK AO2 P0041
KOCH 211646Z AUTO 36010G17KT 4SM +RA BR FEW020 BKN030 OVC045 14/13 A3016 RMK AO2 P0031
KOCH 211636Z AUTO 36010G17KT 5SM +RA BR FEW020 BKN028 OVC043 14/13 A3016 RMK AO2 LTG DSNT N P0019
KOCH 211619Z AUTO 36008G15KT 8SM +RA FEW006 BKN031 OVC045 13/13 A3016 RMK AO2 LTG DSNT ALQDS P0008
KOCH 211556Z AUTO 34012G17KT 5SM RA BR FEW006 BKN022 OVC034 13/12 A3016 RMK AO2 LTG DSNT SW-N SLP215 P0062 T01280122
KOCH 211541Z AUTO 36013G17KT 2SM +RA BR SCT004 BKN017 OVC022 12/12 A3016 RMK AO2 VIS 1 1/2V2 1/2 P0046
KOCH 211456Z AUTO 34009KT 10SM -RA BKN004 OVC013 13/12 A3015 RMK AO2 SLP213 P0041 60048 T01280122 51021
KOCH 211440Z AUTO 01004KT 10SM -RA BKN004 OVC011 12/12 A3014 RMK AO2 P0041
KOCH 211433Z AUTO 01005KT 8SM -RA SCT004 OVC011 12/12 A3014 RMK AO2 P0041
KOCH 211424Z AUTO 33007KT 2 1/2SM +RA BR FEW004 OVC013 12/12 A3014 RMK AO2 VIS 1 3/4V5 P0041
KOCH 211408Z AUTO 34009KT 10SM RA SCT004 OVC014 12/12 A3013 RMK AO2 P0002
KOCH 211356Z AUTO 35008KT 10SM -RA BKN004 BKN012 OVC019 12/12 A3013 RMK AO2 RAB32 SLP205 P0002 T01220117
KOCH 211256Z AUTO 33011KT 10SM BKN004 13/13 A3013 RMK AO2 LTG DSNT NE AND E TSE04B06E29B32E52RAE54 CIG 003V008 SLP205 P0005 T01330128
KOCH 211252Z AUTO 32010KT 10SM -RA BKN004 BKN008 OVC100 14/13 A3013 RMK AO2 LTG DSNT NE AND E TSE04B06E29B32E52 P0005